Flight Track Log - Related Links

Times and Time Zones

All times are in EDT time to prevent confusion due to time zone crossing. See the RPA3321 flight status page for this flight to view local times or setup timezone preferences in your user account.

Time Position Orientation Groundspeed Altitude Reporting Facility
EDT Latitude Longitude Course Direction KTS MPH feet Rate Location/Type
Tue 05:34:21 AM 42.7278 -73.8081 120° Southeast 149 171 1,600  Level Boston Center
Tue 05:35:34 AM 42.6981 -73.8556 230° Southwest 227 261 4,200 2,015 Climbing Boston Center
Tue 05:36:00 AM 42.5189 -74.0063 171° South  Level Estimated
Tue 05:36:38 AM 42.7286 -73.9128 306° West 243 280 6,200  Level Boston Center
Tue 05:37:00 AM 42.4421 -74.0741 180° South  Level Estimated
Tue 05:37:38 AM 42.7814 -74.0158 305° West 265 305 9,600  Level Boston Center
Tue 05:38:00 AM 42.3653 -74.1417 172° South  Level Estimated
Tue 05:38:38 AM 42.7922 -74.1236 278° West 262 302 12,900  Level Boston Center
Tue 05:39:00 AM 42.3192 -74.0346 120° Southeast  Level FlightAware Approximate
Tue 05:39:38 AM 42.7211 -74.1386 189° South 217 250 14,600  Level Boston Center
Tue 05:40:38 AM 42.6281 -74.0853 157° South 320 368 17,400 2,150 Climbing Boston Center
Tue 05:41:38 AM 42.5497 -74.0381 156° South 334 384 18,900 1,650 Climbing Boston Center
Tue 05:42:38 AM 42.4606 -73.9908 159° South 342 394 20,700 1,700 Climbing Boston Center
Tue 05:43:38 AM 42.3633 -73.9378 158° South 360 414 22,300 1,750 Climbing Boston Center
Tue 05:44:38 AM 42.2661 -73.8822 157° South 373 429 24,200 1,650 Climbing Boston Center
Tue 05:45:38 AM 42.1669 -73.8267 157° South 383 441 25,600 900 Climbing Boston Center
Tue 05:46:38 AM 42.0531 -73.7625 157° South 398 458 26,000 200 Climbing Boston Center
Tue 05:47:38 AM 41.9494 -73.7044 157° South 403 464 26,000  Level Boston Center
Tue 05:48:38 AM 41.8481 -73.6469 157° South 403 464 26,000  Level Boston Center
Tue 05:50:31 AM 41.6539 -73.6253 175° South 368 423 26,000  Level New York Center
Tue 05:51:29 AM 41.5753 -73.6967 214° Southwest 360 414 26,000  Level New York Center
Tue 05:52:29 AM 41.4897 -73.7844 218° Southwest 360 414 26,000  Level New York Center
Tue 05:53:30 AM 41.4058 -73.8828 221° Southwest 385 443 26,000  Level New York Center
Tue 05:54:29 AM 41.3242 -73.9758 221° Southwest 395 455 26,000  Level New York Center
Tue 05:55:29 AM 41.2406 -74.0683 220° Southwest 400 460 26,000  Level New York Center
Tue 05:56:30 AM 41.1567 -74.1661 221° Southwest 400 460 26,000  Level New York Center
Tue 05:57:31 AM 41.0622 -74.2606 217° Southwest 400 460 26,000  Level New York Center
Tue 05:58:31 AM 40.9800 -74.3581 222° Southwest 395 455 26,000  Level New York Center
Tue 05:59:29 AM 40.8939 -74.4494 219° Southwest 395 455 26,000  Level New York Center
Tue 06:00:31 AM 40.8117 -74.5464 222° Southwest 400 460 26,000  Level New York Center
Tue 06:01:31 AM 40.7275 -74.6347 219° Southwest 395 455 26,000  Level New York Center
Tue 06:02:29 AM 40.6453 -74.7286 221° Southwest 395 455 26,000  Level New York Center
Tue 06:03:29 AM 40.5631 -74.8194 220° Southwest 395 455 26,000  Level New York Center
Tue 06:04:29 AM 40.4786 -74.9072 218° Southwest 395 455 26,000  Level New York Center
Tue 06:05:30 AM 40.3981 -75.0033 222° Southwest 395 455 26,000 -446 Level New York Center
Tue 06:06:30 AM 40.3322 -75.1000 228° Southwest 395 455 25,100 -958 Descending New York Center
Tue 06:07:29 AM 40.2617 -75.2017 228° Southwest 395 455 24,100 -992 Descending New York Center
Tue 06:08:31 AM 40.1911 -75.3031 228° Southwest 384 442 23,100 -1,008 Descending New York Center
Tue 06:09:28 AM 40.1167 -75.3989 225° Southwest 384 442 22,100 -559 Descending New York Center
Tue 06:10:29 AM 40.0481 -75.4972 228° Southwest 384 442 22,000 -49 Descending New York Center
Tue 06:11:30 AM 39.9750 -75.5981 227° Southwest 384 442 22,000  Level New York Center
Tue 06:12:30 AM 39.9086 -75.6961 229° Southwest 379 436 22,000  Level New York Center
Tue 06:13:31 AM 39.8456 -75.8053 233° Southwest 379 436 22,000 -1,264 Level New York Center
Tue 06:15:00 AM 39.7640 -75.9387 237° Southwest  Level FlightAware Approximate
Tue 06:16:32 AM 39.6333 -76.1333 237° Southwest 365 420 16,900  Level Potomac TRACON
Tue 06:17:32 AM 39.5667 -76.2333 229° Southwest 349 402 14,800 -2,000 Descending Potomac TRACON
Tue 06:18:20 AM 39.5167 -76.3000 226° Southwest 347 399 13,300 -1,556 Descending Potomac TRACON
Tue 06:19:20 AM 39.4667 -76.4000 237° Southwest 324 373 12,000 -1,200 Descending Potomac TRACON
Tue 06:20:15 AM 39.4000 -76.4667 218° Southwest 318 366 11,000 -1,101 Descending Potomac TRACON
Tue 06:21:09 AM 39.3333 -76.5167 210° Southwest 314 361 10,000 -526 Descending Potomac TRACON
Tue 06:22:09 AM 39.2667 -76.5833 218° Southwest 312 359 10,000  Level Potomac TRACON
Tue 06:23:09 AM 39.2000 -76.6333 210° Southwest 287 330 10,000  Level Potomac TRACON
Tue 06:24:03 AM 39.1333 -76.7000 218° Southwest 287 330 10,000  Level Potomac TRACON
Tue 06:24:58 AM 39.0833 -76.7667 226° Southwest 285 328 10,000 -730 Level Potomac TRACON
Tue 06:25:58 AM 39.0333 -76.8333 226° Southwest 283 326 8,600 -1,714 Descending Potomac TRACON
Tue 06:27:04 AM 38.9667 -76.9000 218° Southwest 279 321 6,400 -1,333 Descending Potomac TRACON
Tue 06:28:04 AM 38.9000 -76.9500 210° Southwest 264 304 5,800 -1,211 Descending Potomac TRACON
Tue 06:28:58 AM 38.8333 -76.9500 180° South 260 299 4,100 -939 Descending Potomac TRACON
Tue 06:29:59 AM 38.7667 -76.9500 180° South 199 229 4,000 -99 Descending Potomac TRACON
Tue 06:30:59 AM 38.7333 -76.9333 159° South 163 188 3,900 -632 Descending Potomac TRACON
Tue 06:31:53 AM 38.6833 -76.9333 180° South 162 186 2,800 -887 Descending Potomac TRACON
Tue 06:32:54 AM 38.6833 -77.0000 270° West 207 238 2,200 -595 Descending Potomac TRACON
Tue 06:33:54 AM 38.7333 -77.0333 333° Northwest 176 203 1,600 -350 Descending Potomac TRACON
Tue 06:34:54 AM 38.7667 -77.0333 360° North 169 194 1,500 -100 Descending Potomac TRACON

Login

Don't have an account? Register now (free) for customized features, flight alerts, and more!